Time;durP1;ratioP1;P1;durP2;ratioP2;P2;SDS_P1;SDS_P2;PMS_P1;PMS_P2;Temp;Humidity;BMP_temperature;BMP_pressure;BME280_temperature;BME280_humidity;BME280_pressure;Samples;Min_cycle;Max_cycle;Signal;HPM_P1;HPM_P2
2022/07/08 00:03:02;;;;;;;8.25;5.72;;;;;;;18.43;94.76;100566.49;2771458;83;21033;-57
2022/07/08 00:07:04;;;;;;;7.62;6.78;;;;;;;18.44;95.14;100573.56;2758010;85;21013;-55
2022/07/08 00:11:06;;;;;;;6.85;6.22;;;;;;;18.45;94.93;100566.66;2784502;83;21008;-56
2022/07/08 00:15:10;;;;;;;7.47;6.83;;;;;;;18.50;95.08;100572.37;2785123;85;21021;-56
2022/07/08 00:19:28;;;;;;;11.30;7.70;;;;;;;18.49;95.42;100570.69;2784966;85;20997;-57
2022/07/08 00:23:29;;;;;;;7.97;7.22;;;;;;;18.45;96.22;100574.75;2785212;85;20929;-56
2022/07/08 00:27:34;;;;;;;7.65;6.85;;;;;;;18.40;96.65;100569.04;2778764;85;21013;-56
2022/07/08 00:31:36;;;;;;;7.97;7.25;;;;;;;18.40;96.92;100579.29;2785017;85;20980;-57
2022/07/08 00:35:37;;;;;;;6.85;6.25;;;;;;;18.46;96.83;100572.39;2796331;84;21009;-56
2022/07/08 00:39:39;;;;;;;8.05;7.25;;;;;;;18.47;97.13;100581.30;2802674;84;20998;-56
2022/07/08 00:44:10;;;;;;;9.68;8.23;;;;;;;18.45;97.52;100575.23;2784769;85;21011;-56
2022/07/08 00:48:11;;;;;;;10.18;8.38;;;;;;;18.46;97.41;100585.00;2759427;85;21029;-56
2022/07/08 00:52:14;;;;;;;9.55;6.95;;;;;;;18.44;97.46;100582.49;2784948;84;21016;-56
2022/07/08 00:56:15;;;;;;;10.25;6.35;;;;;;;18.39;97.73;100594.29;2718497;87;21047;-56
2022/07/08 01:00:17;;;;;;;8.03;6.97;;;;;;;18.33;98.82;100593.11;2720275;86;21013;-56
2022/07/08 01:04:26;;;;;;;8.45;7.65;;;;;;;18.27;99.80;100601.84;2748906;84;21061;-56
2022/07/08 01:08:28;;;;;;;7.42;6.67;;;;;;;18.28;100.00;100604.90;2826544;84;21017;-56
2022/07/08 01:12:36;;;;;;;10.10;7.25;;;;;;;18.29;100.00;100601.69;2842907;82;20981;-57
2022/07/08 01:16:37;;;;;;;6.97;6.37;;;;;;;18.30;100.00;100606.06;2834535;83;21028;-56
2022/07/08 01:20:44;;;;;;;8.63;7.20;;;;;;;18.33;100.00;100610.61;2826117;84;20996;-57
2022/07/08 01:24:45;;;;;;;8.48;7.75;;;;;;;18.36;100.00;100613.45;2827124;84;20964;-56
2022/07/08 01:28:46;;;;;;;9.18;7.25;;;;;;;18.39;100.00;100609.92;2827313;84;20999;-56
2022/07/08 01:32:51;;;;;;;7.97;7.22;;;;;;;18.41;100.00;100615.98;2827228;83;20964;-57
2022/07/08 01:36:52;;;;;;;9.98;7.25;;;;;;;18.38;100.00;100612.28;2780554;85;21004;-56
2022/07/08 01:41:06;;;;;;;6.08;5.50;;;;;;;18.39;100.00;100615.31;2865798;83;20986;-56
2022/07/08 01:45:09;;;;;;;6.78;6.08;;;;;;;18.39;100.00;100613.14;2825360;82;21049;-56
2022/07/08 01:49:14;;;;;;;6.05;5.42;;;;;;;18.45;100.00;100616.98;2826493;84;21238;-56
2022/07/08 01:53:14;;;;;;;6.65;6.10;;;;;;;18.45;100.00;100619.67;2771738;83;21039;-56
2022/07/08 01:57:42;;;;;;;8.10;7.40;;;;;;;18.47;100.00;100626.59;2800576;84;20987;-56
2022/07/08 02:01:43;;;;;;;6.70;6.10;;;;;;;18.50;100.00;100629.46;2827321;84;21012;-56
2022/07/08 02:05:48;;;;;;;15.45;5.17;;;;;;;18.47;100.00;100637.85;2785630;85;21009;-56
2022/07/08 02:09:50;;;;;;;8.33;6.50;;;;;;;18.41;100.00;100636.70;2820562;83;21037;-56
2022/07/08 02:13:51;;;;;;;6.60;5.70;;;;;;;18.44;100.00;100644.93;2817269;83;21017;-56
2022/07/08 02:17:52;;;;;;;5.85;5.28;;;;;;;18.46;100.00;100646.95;2776069;85;21008;-56
2022/07/08 02:21:54;;;;;;;4.37;3.98;;;;;;;18.45;100.00;100646.12;2827216;82;20990;-56
2022/07/08 02:25:56;;;;;;;2.95;2.72;;;;;;;18.37;100.00;100647.45;2816510;82;21015;-56
2022/07/08 02:34:29;;;;;;;2.83;2.62;;;;;;;18.45;100.00;100663.63;2823908;83;20982;-56
2022/07/08 02:38:30;;;;;;;3.45;2.80;;;;;;;18.40;100.00;100670.03;2828157;83;21028;-57
2022/07/08 02:43:26;;;;;;;3.05;2.47;;;;;;;18.29;100.00;100670.34;2801468;83;21005;-57
2022/07/08 02:47:27;;;;;;;5.53;4.08;;;;;;;18.16;100.00;100689.69;2784412;85;20977;-58
2022/07/08 02:51:30;;;;;;;4.53;3.87;;;;;;;18.01;100.00;100690.30;2776358;84;21076;-57
2022/07/08 02:55:31;;;;;;;3.65;3.35;;;;;;;17.95;100.00;100700.38;2784552;82;21265;-57
2022/07/08 02:59:41;;;;;;;3.75;3.45;;;;;;;17.89;100.00;100695.67;2757941;84;21038;-59
2022/07/08 03:03:47;;;;;;;6.25;4.17;;;;;;;17.94;100.00;100706.26;2732764;86;20999;-57
2022/07/08 03:07:48;;;;;;;7.22;5.28;;;;;;;17.88;100.00;100720.86;2760571;85;21078;-57
2022/07/08 03:11:49;;;;;;;15.83;6.35;;;;;;;17.91;100.00;100724.60;2805440;84;21052;-58
2022/07/08 03:15:50;;;;;;;11.57;5.05;;;;;;;17.82;100.00;100727.25;2773903;85;20925;-57
2022/07/08 03:19:52;;;;;;;5.20;3.77;;;;;;;17.76;100.00;100736.47;2810448;84;20934;-58
2022/07/08 03:23:53;;;;;;;10.50;4.05;;;;;;;17.73;100.00;100738.14;2809933;85;20996;-58
2022/07/08 03:27:55;;;;;;;7.05;4.95;;;;;;;17.66;100.00;100746.87;2803996;85;21028;-58
2022/07/08 03:31:57;;;;;;;6.60;3.60;;;;;;;17.63;100.00;100749.88;2802857;85;20985;-58
2022/07/08 03:35:58;;;;;;;8.33;5.12;;;;;;;17.55;100.00;100757.89;2809256;85;21036;-58
2022/07/08 03:44:04;;;;;;;8.00;4.42;;;;;;;17.42;100.00;100762.37;2800242;85;20958;-58
2022/07/08 03:48:06;;;;;;;9.98;4.80;;;;;;;17.37;100.00;100767.39;2810336;85;21000;-57
2022/07/08 03:52:12;;;;;;;9.95;4.85;;;;;;;17.32;100.00;100775.09;2810328;85;21008;-57
2022/07/08 03:56:14;;;;;;;14.60;5.35;;;;;;;17.27;100.00;100780.42;2808869;85;20953;-58
2022/07/08 04:00:16;;;;;;;10.58;4.17;;;;;;;17.20;100.00;100788.78;2809549;84;21130;-57
2022/07/08 04:04:18;;;;;;;7.95;4.25;;;;;;;17.15;100.00;100788.41;2736655;85;21045;-58
2022/07/08 04:08:19;;;;;;;11.73;5.30;;;;;;;17.16;100.00;100798.16;2781916;85;20953;-58
2022/07/08 04:12:20;;;;;;;7.05;4.87;;;;;;;17.11;100.00;100800.48;2836233;84;21009;-58
2022/07/08 04:16:29;;;;;;;12.13;5.50;;;;;;;17.15;100.00;100808.58;2810427;83;21142;-58
2022/07/08 04:20:30;;;;;;;12.98;5.33;;;;;;;17.19;100.00;100813.12;2795172;83;21009;-58
2022/07/08 04:24:32;;;;;;;7.45;4.58;;;;;;;17.17;100.00;100817.81;2771748;83;21014;-58
2022/07/08 04:28:50;;;;;;;11.70;5.17;;;;;;;17.16;100.00;100826.39;2763622;84;20972;-58
2022/07/08 04:32:51;;;;;;;10.13;5.55;;;;;;;17.10;100.00;100829.71;2800115;85;20984;-58
2022/07/08 04:36:53;;;;;;;9.08;5.20;;;;;;;17.06;100.00;100828.31;2810478;85;21049;-58
2022/07/08 04:40:54;;;;;;;20.48;6.80;;;;;;;16.96;100.00;100840.45;2810368;85;20993;-58
2022/07/08 04:45:06;;;;;;;16.25;4.33;;;;;;;16.94;100.00;100846.00;2810380;85;21038;-59
2022/07/08 04:49:07;;;;;;;11.75;6.17;;;;;;;16.67;100.00;100849.59;2814159;83;21186;-59
2022/07/08 04:53:15;;;;;;;10.45;5.15;;;;;;;16.73;100.00;100850.84;2830772;83;21049;-59
2022/07/08 04:57:36;;;;;;;12.43;5.53;;;;;;;16.64;100.00;100859.30;2781744;85;21046;-58
2022/07/08 05:01:38;;;;;;;21.82;6.90;;;;;;;16.60;100.00;100853.38;2743206;84;21065;-91
2022/07/08 05:05:40;;;;;;;9.48;5.45;;;;;;;16.52;100.00;100857.34;2733647;84;21094;-91
2022/07/08 05:09:41;;;;;;;23.50;8.05;;;;;;;16.48;100.00;100866.66;2752912;84;21018;-91
2022/07/08 05:13:43;;;;;;;11.88;7.08;;;;;;;16.47;100.00;100875.72;2721249;84;21053;-91
2022/07/08 05:17:44;;;;;;;12.53;7.80;;;;;;;16.40;100.00;100870.95;2710472;84;21009;-91
2022/07/08 05:21:46;;;;;;;14.50;6.40;;;;;;;16.52;100.00;100879.64;2744055;84;21061;-91
2022/07/08 05:25:47;;;;;;;13.03;6.17;;;;;;;16.55;100.00;100890.59;2693104;83;21201;-90
2022/07/08 05:29:49;;;;;;;17.40;8.13;;;;;;;16.55;100.00;100896.80;2737090;84;21046;-91
2022/07/08 05:33:50;;;;;;;12.93;6.28;;;;;;;16.51;100.00;100895.92;2763735;84;21041;-91
2022/07/08 05:37:52;;;;;;;9.33;6.28;;;;;;;16.66;100.00;100905.66;2725177;85;21085;-91
2022/07/08 05:41:53;;;;;;;15.35;6.53;;;;;;;16.70;100.00;100913.75;2723002;85;21070;-91
2022/07/08 05:45:54;;;;;;;13.32;7.92;;;;;;;16.74;100.00;100910.28;2720134;86;21059;-91
2022/07/08 05:49:56;;;;;;;16.85;7.40;;;;;;;16.69;100.00;100912.06;2715144;86;21054;-91
2022/07/08 05:53:57;;;;;;;15.58;8.28;;;;;;;16.65;100.00;100911.52;2678550;87;21440;-90
2022/07/08 05:57:58;;;;;;;19.10;9.23;;;;;;;16.73;100.00;100911.27;2704569;84;21051;-91
2022/07/08 06:02:00;;;;;;;14.18;8.30;;;;;;;16.85;100.00;100917.62;2706715;85;21027;-91
2022/07/08 06:06:01;;;;;;;20.25;8.10;;;;;;;16.94;100.00;100923.92;2668607;87;21645;-91
2022/07/08 06:10:03;;;;;;;25.35;8.45;;;;;;;16.76;100.00;100923.05;2677945;85;21063;-91
2022/07/08 06:14:04;;;;;;;17.48;8.43;;;;;;;16.76;100.00;100924.40;2715198;86;21096;-91
2022/07/08 06:18:06;;;;;;;14.43;9.00;;;;;;;16.91;100.00;100933.64;2681837;87;21189;-91
2022/07/08 06:22:08;;;;;;;19.77;9.85;;;;;;;16.91;100.00;100945.73;2676953;87;21054;-91
2022/07/08 06:26:10;;;;;;;13.60;7.35;;;;;;;16.94;100.00;100937.36;2663923;88;21079;-90
2022/07/08 06:30:13;;;;;;;21.82;8.80;;;;;;;16.81;100.00;100946.27;2698876;85;21186;-91
2022/07/08 06:34:14;;;;;;;13.25;8.00;;;;;;;16.83;100.00;100951.86;2678039;87;21051;-91
2022/07/08 06:38:15;;;;;;;13.80;6.72;;;;;;;17.03;100.00;100953.11;2681267;87;21560;-90
2022/07/08 06:42:19;;;;;;;14.58;7.70;;;;;;;17.07;100.00;100958.52;2689300;87;21067;-90
2022/07/08 06:46:19;;;;;;;15.78;7.65;;;;;;;17.13;100.00;100949.01;2674019;87;21064;-91
2022/07/08 06:50:21;;;;;;;17.80;6.95;;;;;;;17.37;99.78;100950.23;2719178;85;21036;-91
2022/07/08 06:54:37;;;;;;;15.35;7.17;;;;;;;17.40;98.76;100956.64;2728631;86;21646;-91
2022/07/08 06:58:38;;;;;;;15.00;6.05;;;;;;;17.69;97.87;100956.38;2707194;85;21123;-90
2022/07/08 07:02:40;;;;;;;13.62;6.83;;;;;;;17.83;95.69;100948.23;2713954;86;21019;-91
2022/07/08 07:06:42;;;;;;;15.32;7.67;;;;;;;17.99;95.76;100956.08;2687811;86;30470;-90
2022/07/08 07:10:43;;;;;;;12.63;6.35;;;;;;;18.04;95.57;100960.51;2715810;84;21063;-91
2022/07/08 07:14:45;;;;;;;11.55;5.92;;;;;;;18.13;94.69;100964.09;2710181;86;21594;-91
2022/07/08 07:18:47;;;;;;;12.10;6.28;;;;;;;18.14;94.42;100972.52;2722295;86;21010;-90
2022/07/08 07:22:48;;;;;;;15.00;7.78;;;;;;;18.02;92.56;100973.28;2746400;84;21027;-90
2022/07/08 07:26:50;;;;;;;10.55;7.15;;;;;;;18.06;93.73;100979.20;2723379;86;21039;-90
2022/07/08 07:30:51;;;;;;;10.03;6.05;;;;;;;18.02;94.20;100982.70;2724725;85;21617;-91
2022/07/08 07:34:52;;;;;;;13.53;6.53;;;;;;;18.20;93.38;100995.28;2721357;85;21070;-91
2022/07/08 07:38:53;;;;;;;15.83;7.53;;;;;;;18.21;91.52;100988.89;2729909;85;21075;-90
2022/07/08 07:42:55;;;;;;;12.65;6.55;;;;;;;18.26;93.41;101003.56;2745076;85;21048;-90
2022/07/08 07:46:56;;;;;;;14.98;6.25;;;;;;;18.37;91.92;101004.28;2713924;84;21061;-91
2022/07/08 07:51:00;;;;;;;15.00;6.40;;;;;;;18.48;91.81;101004.55;2685733;86;21046;-90
2022/07/08 07:55:01;;;;;;;15.75;6.30;;;;;;;18.50;90.52;101013.30;2712620;85;21062;-91
2022/07/08 07:59:03;;;;;;;18.37;7.15;;;;;;;18.47;90.89;101017.15;2732387;86;21010;-91
2022/07/08 08:03:04;;;;;;;16.05;8.20;;;;;;;18.34;91.22;101026.16;2750276;84;21372;-90
2022/07/08 08:07:06;;;;;;;18.17;8.08;;;;;;;18.30;90.67;101024.79;2721274;85;21038;-91
2022/07/08 08:11:07;;;;;;;15.70;6.87;;;;;;;18.23;92.03;101023.22;2762564;84;21111;-90
2022/07/08 08:15:17;;;;;;;14.28;7.95;;;;;;;18.01;92.10;101020.02;2759909;85;21077;-90
2022/07/08 08:19:18;;;;;;;25.08;8.50;;;;;;;17.82;93.09;101016.51;2740283;84;21077;-91
2022/07/08 08:23:20;;;;;;;19.87;10.58;;;;;;;17.90;93.89;101023.80;2719256;86;21038;-91
2022/07/08 08:27:21;;;;;;;17.52;8.20;;;;;;;18.10;93.67;101015.08;2745243;84;21057;-90
2022/07/08 08:31:22;;;;;;;19.75;8.23;;;;;;;18.32;92.46;101015.56;2759324;84;21036;-91
2022/07/08 08:35:24;;;;;;;9.98;6.60;;;;;;;18.82;91.02;101007.22;2763315;84;21036;-90
2022/07/08 08:39:25;;;;;;;11.40;6.53;;;;;;;19.12;88.27;101012.23;2698306;85;21528;-90
2022/07/08 08:43:27;;;;;;;11.10;5.83;;;;;;;19.29;86.38;101017.66;2730397;84;21077;-91
2022/07/08 08:47:33;;;;;;;10.13;5.97;;;;;;;19.39;86.31;101026.43;2722115;84;21579;-91
2022/07/08 08:51:35;;;;;;;;;;;;;;;19.57;84.59;101026.80;2749324;85;21536;-91
2022/07/08 08:55:36;;;;;;;11.88;5.85;;;;;;;19.62;83.17;101032.03;2740517;85;20240;-90
2022/07/08 08:59:38;;;;;;;17.12;5.83;;;;;;;19.79;82.48;101019.38;2742267;84;21549;-91
2022/07/08 09:03:39;;;;;;;12.30;6.47;;;;;;;19.82;83.70;101031.70;2728488;84;21014;-91
2022/07/08 09:07:41;;;;;;;10.30;6.80;;;;;;;19.76;82.75;101023.77;2741380;85;21613;-90
2022/07/08 09:11:44;;;;;;;11.65;4.92;;;;;;;19.42;83.16;101023.40;2749026;84;21060;-91
2022/07/08 09:15:48;;;;;;;10.72;4.90;;;;;;;19.26;83.09;101014.29;2731963;84;21076;-90
2022/07/08 09:19:50;;;;;;;9.95;6.05;;;;;;;19.50;83.96;101028.83;2724477;85;21640;-91
2022/07/08 09:23:57;;;;;;;10.15;5.05;;;;;;;19.70;83.14;101019.05;2719018;85;21055;-90
2022/07/08 09:27:58;;;;;;;9.00;5.95;;;;;;;19.93;81.49;101035.95;2728038;84;21655;-91
2022/07/08 09:32:16;;;;;;;9.25;5.37;;;;;;;20.02;81.64;101035.44;2750479;85;21025;-91
2022/07/08 09:36:17;;;;;;;5.25;4.05;;;;;;;19.95;80.73;101037.97;2732376;84;21094;-91
2022/07/08 09:40:18;;;;;;;9.45;3.72;;;;;;;19.75;80.12;101030.19;2736896;84;21659;-91
2022/07/08 09:44:26;;;;;;;4.78;2.90;;;;;;;19.59;79.65;101037.77;2697542;84;21038;-91
2022/07/08 09:48:25;;;;;;;10.13;3.12;;;;;;;19.76;77.99;101046.71;2733733;85;21101;-90
2022/07/08 09:52:26;;;;;;;5.37;3.22;;;;;;;19.93;75.62;101046.23;2718319;84;21088;-90
2022/07/08 09:56:28;;;;;;;10.25;3.20;;;;;;;20.21;74.75;101046.38;2737116;84;21061;-90
2022/07/08 10:00:30;;;;;;;13.45;3.12;;;;;;;20.39;75.00;101038.92;2707253;86;21062;-90
2022/07/08 10:04:31;;;;;;;4.58;2.25;;;;;;;20.43;74.38;101050.73;2727367;85;21021;-91
2022/07/08 10:08:35;;;;;;;6.45;2.70;;;;;;;20.22;74.44;101064.27;2734036;85;21078;-90
2022/07/08 10:12:36;;;;;;;5.67;2.85;;;;;;;20.43;74.91;101071.85;2724497;84;21140;-90
2022/07/08 10:16:40;;;;;;;4.67;2.70;;;;;;;20.53;73.63;101067.08;2741519;84;21021;-90
2022/07/08 10:20:49;;;;;;;4.33;2.80;;;;;;;20.65;73.32;101066.23;2766326;83;21337;-89
2022/07/08 10:24:52;;;;;;;4.75;2.98;;;;;;;20.79;73.19;101058.40;2734444;85;21327;-90
2022/07/08 10:29:02;;;;;;;7.67;2.85;;;;;;;20.80;73.49;101057.41;2729856;86;21030;-90
2022/07/08 10:33:03;;;;;;;3.98;2.08;;;;;;;20.87;73.51;101053.01;2636385;88;21109;-91
2022/07/08 10:37:04;;;;;;;10.35;3.85;;;;;;;20.75;73.05;101056.57;2675053;87;21113;-91
2022/07/08 10:41:11;;;;;;;14.85;2.98;;;;;;;21.29;74.87;101044.69;2677087;87;21017;-90
2022/07/08 10:45:17;;;;;;;14.90;2.62;;;;;;;21.69;69.20;101048.99;2667349;86;21160;-91
2022/07/08 10:49:18;;;;;;;2.92;1.85;;;;;;;21.93;68.17;101040.36;2691909;86;21018;-90
2022/07/08 10:53:20;;;;;;;2.45;2.02;;;;;;;22.01;68.20;101056.20;2670642;87;21048;-91
2022/07/08 10:57:27;;;;;;;12.23;3.20;;;;;;;21.89;67.19;101055.80;2668891;87;21059;-91
2022/07/08 11:01:28;;;;;;;4.10;2.12;;;;;;;21.96;66.49;101056.73;2666522;87;21089;-91
2022/07/08 11:05:41;;;;;;;3.77;1.62;;;;;;;21.92;66.32;101041.39;2672814;87;21105;-91
2022/07/08 11:09:48;;;;;;;9.80;2.77;;;;;;;22.17;63.90;101051.13;2635299;88;21062;-90
2022/07/08 11:13:51;;;;;;;3.40;1.60;;;;;;;22.27;65.39;101054.44;2660443;85;22241;-91
2022/07/08 11:17:55;;;;;;;1.77;1.67;;;;;;;22.87;63.03;101039.56;2759699;84;21046;-90
2022/07/08 11:22:03;;;;;;;5.08;1.82;;;;;;;23.11;61.07;101036.19;2735776;85;21052;-90
2022/07/08 11:26:04;;;;;;;1.62;1.32;;;;;;;23.40;59.34;101023.61;2762590;84;21634;-91
2022/07/08 11:30:13;;;;;;;4.40;2.02;;;;;;;23.60;58.33;101016.17;2717328;84;21014;-91
2022/07/08 11:34:20;;;;;;;4.37;1.07;;;;;;;23.86;58.28;101018.80;2757063;84;21057;-90
2022/07/08 11:38:41;;;;;;;1.72;1.00;;;;;;;23.68;57.08;101025.53;2743638;84;21520;-91
2022/07/08 11:42:41;;;;;;;2.65;1.20;;;;;;;23.52;56.60;101019.33;2722607;84;21021;-91
2022/07/08 11:46:50;;;;;;;3.17;1.55;;;;;;;23.27;58.93;101007.17;2722748;86;21074;-90
2022/07/08 11:50:53;;;;;;;1.67;0.95;;;;;;;23.04;59.15;101019.83;2720220;85;20990;-90
2022/07/08 11:54:59;;;;;;;8.85;2.80;;;;;;;22.94;59.03;101017.95;2731655;85;21517;-90
2022/07/08 11:59:00;;;;;;;6.50;1.37;;;;;;;23.15;58.01;101010.88;2738441;84;21076;-90
2022/07/08 12:03:02;;;;;;;2.65;1.12;;;;;;;23.13;55.58;100998.84;2748840;85;21060;-91
2022/07/08 12:07:09;;;;;;;2.25;1.22;;;;;;;23.31;56.86;100994.89;2702363;85;21029;-91
2022/07/08 12:11:16;;;;;;;8.25;4.22;;;;;;;23.58;57.09;100992.42;2719031;85;21110;-91
2022/07/08 12:15:18;;;;;;;6.53;1.90;;;;;;;23.47;56.91;100991.07;2733387;86;21127;-91
2022/07/08 12:19:33;;;;;;;6.92;2.35;;;;;;;23.65;57.99;100977.05;2747708;85;21078;-91
2022/07/08 12:23:43;;;;;;;;;;;;;;;23.53;57.48;100978.92;2718452;86;21042;-90
2022/07/08 12:28:03;;;;;;;6.65;2.10;;;;;;;23.08;57.85;100970.92;2734472;85;20101;-91
2022/07/08 12:32:09;;;;;;;3.87;1.52;;;;;;;23.02;58.39;100977.13;2691069;85;21003;-91
2022/07/08 12:36:26;;;;;;;2.27;1.90;;;;;;;22.97;59.22;100983.13;2734250;85;21562;-90
2022/07/08 12:40:40;;;;;;;3.70;1.62;;;;;;;23.11;57.71;100990.06;2699186;85;21577;-91
2022/07/08 12:44:50;;;;;;;1.77;0.98;;;;;;;23.26;55.68;100976.47;2696217;86;21558;-90
2022/07/08 12:48:53;;;;;;;3.20;1.52;;;;;;;23.30;56.44;100972.86;2706221;85;21313;-90
2022/07/08 12:53:02;;;;;;;2.33;0.93;;;;;;;23.69;53.90;100964.75;2732688;85;21068;-91
2022/07/08 12:57:04;;;;;;;22.82;3.05;;;;;;;23.70;55.94;100971.86;2735847;85;21063;-90
2022/07/08 13:01:06;;;;;;;1.35;1.10;;;;;;;23.73;54.47;100967.39;2711165;84;21581;-91
2022/07/08 13:05:07;;;;;;;2.05;1.32;;;;;;;23.78;54.44;100973.59;2725751;85;21098;-91
2022/07/08 13:09:11;;;;;;;5.35;1.37;;;;;;;24.08;53.88;100969.36;2718092;86;21634;-91
2022/07/08 13:13:12;;;;;;;8.30;2.45;;;;;;;24.55;54.11;100960.61;2712857;84;21097;-91
2022/07/08 13:17:15;;;;;;;5.25;1.77;;;;;;;24.57;53.35;100936.27;2710489;85;21062;-90
2022/07/08 13:21:16;;;;;;;1.37;1.27;;;;;;;24.51;53.28;100935.70;2748361;84;21135;-91
2022/07/08 13:25:17;;;;;;;6.87;2.50;;;;;;;24.64;54.01;100937.63;2718864;86;21053;-90
2022/07/08 13:29:19;;;;;;;5.12;2.25;;;;;;;23.93;53.11;100941.74;2716625;86;21040;-90
2022/07/08 13:33:20;;;;;;;6.62;2.33;;;;;;;23.91;53.93;100947.05;2741863;86;21106;-89
2022/07/08 13:37:26;;;;;;;2.15;0.82;;;;;;;23.73;54.13;100942.95;2722991;86;21074;-89
2022/07/08 13:41:31;;;;;;;3.15;1.55;;;;;;;23.61;54.69;100928.25;2701852;84;21059;-90
2022/07/08 13:45:32;;;;;;;3.37;1.32;;;;;;;23.89;54.66;100947.77;2726840;85;21043;-90
2022/07/08 13:49:33;;;;;;;1.77;0.85;;;;;;;24.32;52.22;100936.76;2725509;85;21052;-90
2022/07/08 13:53:35;;;;;;;7.67;1.98;;;;;;;24.21;52.00;100931.38;2731966;86;21928;-89
2022/07/08 13:57:36;;;;;;;4.15;2.08;;;;;;;24.29;53.37;100914.59;2677793;87;21116;-89
2022/07/08 14:01:37;;;;;;;3.17;1.40;;;;;;;24.47;52.20;100916.25;2699368;85;21062;-89
2022/07/08 14:05:39;;;;;;;7.17;2.80;;;;;;;24.45;53.46;100923.74;2693359;87;21385;-89
2022/07/08 14:09:40;;;;;;;6.87;2.12;;;;;;;24.15;53.65;100934.05;2665322;87;21037;-89
2022/07/08 14:13:42;;;;;;;3.00;2.20;;;;;;;23.90;53.93;100921.77;2661058;87;21019;-89
2022/07/08 14:17:43;;;;;;;2.98;1.87;;;;;;;23.54;54.80;100919.51;2684876;87;21058;-89
2022/07/08 14:21:44;;;;;;;9.38;3.17;;;;;;;23.64;55.29;100929.20;2714320;86;21113;-89
2022/07/08 14:25:46;;;;;;;3.95;2.35;;;;;;;23.51;55.52;100918.55;2708997;86;21548;-89
2022/07/08 14:29:48;;;;;;;8.15;2.67;;;;;;;23.71;56.20;100923.83;2680371;86;21055;-89
2022/07/08 14:33:50;;;;;;;3.42;2.08;;;;;;;23.78;56.41;100920.12;2695140;87;22330;-90
2022/07/08 14:37:51;;;;;;;6.95;2.98;;;;;;;23.88;55.62;100922.49;2696293;86;21033;-90
2022/07/08 14:41:53;;;;;;;5.95;2.37;;;;;;;23.93;54.32;100928.66;2713143;86;21614;-91
2022/07/08 14:46:03;;;;;;;6.92;2.42;;;;;;;23.67;53.41;100942.38;2761075;80;21081;-95
2022/07/08 14:50:09;;;;;;;3.87;2.37;;;;;;;23.49;55.00;100952.37;2872385;80;20998;-94
2022/07/08 14:54:11;;;;;;;22.35;4.08;;;;;;;23.39;56.51;100936.42;2891845;81;21132;-95
2022/07/08 14:58:13;;;;;;;2.47;1.72;;;;;;;23.38;56.45;100949.64;2865442;81;21037;-94
2022/07/08 15:02:14;;;;;;;6.40;3.15;;;;;;;23.50;55.71;100950.81;2829924;81;21040;-95
2022/07/08 15:06:16;;;;;;;5.35;2.12;;;;;;;23.33;55.61;100948.04;2850078;80;21029;-95
2022/07/08 15:10:18;;;;;;;3.20;1.45;;;;;;;23.35;56.78;100956.83;2829486;81;21018;-95
2022/07/08 15:14:19;;;;;;;4.00;1.77;;;;;;;23.39;55.84;100965.75;2842661;81;21086;-95
2022/07/08 15:18:30;;;;;;;3.10;2.35;;;;;;;23.22;56.33;100972.43;2876074;81;21447;-94
2022/07/08 15:22:32;;;;;;;4.30;1.77;;;;;;;23.33;56.08;100978.75;2872198;81;21026;-95
2022/07/08 15:26:34;;;;;;;4.30;2.20;;;;;;;23.45;55.91;100968.71;2878005;81;21026;-96
2022/07/08 15:30:35;;;;;;;4.22;2.12;;;;;;;23.52;54.43;100974.53;2883143;80;21030;-96
2022/07/08 15:34:37;;;;;;;7.17;1.35;;;;;;;23.50;55.47;100969.81;2882910;81;20967;-93
2022/07/08 15:38:38;;;;;;;13.90;3.20;;;;;;;23.42;55.23;100966.39;2847914;82;21065;-95
2022/07/08 15:42:40;;;;;;;6.58;2.02;;;;;;;23.29;55.59;100977.97;2876034;81;21066;-94
2022/07/08 15:46:41;;;;;;;5.72;1.05;;;;;;;22.57;56.19;100992.13;2836931;81;21524;-95
2022/07/08 15:50:43;;;;;;;9.90;3.02;;;;;;;22.13;57.79;101011.90;2795680;82;21097;-94
2022/07/08 15:54:44;;;;;;;5.83;1.95;;;;;;;21.99;59.40;101008.97;2822232;82;21097;-95
2022/07/08 15:58:49;;;;;;;5.75;2.05;;;;;;;22.29;59.48;100998.69;2857636;82;21014;-94
2022/07/08 16:02:51;;;;;;;7.58;2.37;;;;;;;22.39;59.11;101001.44;2815963;82;21070;-92
2022/07/08 16:06:58;;;;;;;3.85;2.60;;;;;;;22.09;59.51;101023.11;2815777;81;21065;-92
2022/07/08 16:10:59;;;;;;;3.30;2.45;;;;;;;21.74;59.72;101026.80;2843244;81;21018;-93
2022/07/08 16:15:01;;;;;;;5.08;1.92;;;;;;;21.29;61.42;101040.63;2844866;80;21030;-94
2022/07/08 16:19:03;;;;;;;7.50;2.47;;;;;;;21.10;62.33;101048.17;2834261;80;21577;-94
2022/07/08 16:23:08;;;;;;;10.75;2.58;;;;;;;20.91;62.80;101050.28;2827665;82;21026;-94
2022/07/08 16:27:07;;;;;;;5.20;1.98;;;;;;;20.82;61.65;101040.01;2830948;81;21065;-93
2022/07/08 16:31:09;;;;;;;6.53;2.90;;;;;;;20.72;62.13;101052.84;2824882;81;21088;-93
2022/07/08 16:35:11;;;;;;;2.47;1.92;;;;;;;20.81;61.83;101059.09;2825566;82;20994;-94
2022/07/08 16:39:13;;;;;;;15.88;4.72;;;;;;;20.96;60.48;101064.11;2825307;81;21022;-94
2022/07/08 16:43:15;;;;;;;16.93;3.42;;;;;;;21.07;60.58;101053.41;2837688;81;21062;-96
2022/07/08 16:47:16;;;;;;;4.22;2.75;;;;;;;21.10;59.54;101042.76;2837250;82;21064;-96
2022/07/08 16:51:18;;;;;;;6.37;2.52;;;;;;;20.94;59.15;101053.98;2836016;82;21069;-95
2022/07/08 16:55:20;;;;;;;6.30;2.85;;;;;;;20.84;59.87;101062.83;2833126;82;21017;-95
2022/07/08 16:59:21;;;;;;;4.45;2.85;;;;;;;20.79;60.35;101061.09;2865707;81;21013;-95
2022/07/08 17:03:23;;;;;;;9.20;2.20;;;;;;;20.79;60.55;101066.50;2853919;82;21046;-94
2022/07/08 17:07:31;;;;;;;6.17;2.00;;;;;;;20.90;60.09;101049.09;2857318;82;22160;-94
2022/07/08 17:11:32;;;;;;;3.65;2.25;;;;;;;21.04;60.25;101057.82;2765129;84;21007;-95
2022/07/08 17:15:35;;;;;;;7.50;2.52;;;;;;;20.81;59.79;101046.93;2740111;85;21079;-96
2022/07/08 17:19:37;;;;;;;9.40;2.15;;;;;;;20.76;59.80;101053.34;2859122;82;20991;-96
2022/07/08 17:23:39;;;;;;;9.88;3.17;;;;;;;20.71;60.40;101063.84;2826538;82;21010;-96
2022/07/08 17:27:40;;;;;;;5.10;2.00;;;;;;;20.65;60.38;101064.02;2840091;82;21034;-96
2022/07/08 17:31:42;;;;;;;9.75;2.45;;;;;;;20.57;61.28;101068.11;2840694;82;21037;-96
2022/07/08 17:35:43;;;;;;;8.55;3.30;;;;;;;20.59;60.85;101062.02;2834746;82;21524;-96
2022/07/08 17:39:46;;;;;;;5.10;2.50;;;;;;;20.64;60.59;101066.39;2845843;82;21038;-96
2022/07/08 17:43:48;;;;;;;8.68;3.20;;;;;;;20.63;60.70;101062.83;2814839;82;20993;-96
2022/07/08 17:47:50;;;;;;;5.60;2.80;;;;;;;20.57;60.15;101067.59;2863132;81;21042;-95
2022/07/08 17:51:51;;;;;;;4.45;2.47;;;;;;;20.55;60.24;101068.27;2876220;81;21112;-93
2022/07/08 17:55:53;;;;;;;8.20;2.75;;;;;;;20.61;60.57;101069.45;2868840;81;21050;-89
2022/07/08 17:59:55;;;;;;;5.03;2.42;;;;;;;20.63;60.63;101066.06;2839880;81;21010;-94
2022/07/08 18:03:57;;;;;;;4.83;2.15;;;;;;;20.58;60.57;101066.57;2888903;81;21097;-90
2022/07/08 18:07:58;;;;;;;7.62;2.30;;;;;;;20.54;60.52;101070.64;2870681;82;21069;-93
2022/07/08 18:12:00;;;;;;;4.62;2.25;;;;;;;20.47;60.88;101075.06;2869643;81;21028;-91
2022/07/08 18:16:02;;;;;;;2.17;1.50;;;;;;;20.33;61.21;101076.58;2883229;80;21632;-96
2022/07/08 18:28:27;;;;;;;20.57;5.22;;;;;;;20.20;62.17;101083.37;2686936;86;21168;-63
2022/07/08 18:32:43;;;;;;;8.38;2.70;;;;;;;20.14;62.43;101088.08;2706405;86;20998;-64
2022/07/08 18:36:45;;;;;;;5.08;2.77;;;;;;;20.04;63.01;101088.25;2761857;85;21279;-64
2022/07/08 18:40:48;;;;;;;6.50;2.17;;;;;;;19.98;63.38;101086.23;2755965;86;20973;-64
2022/07/08 18:44:49;;;;;;;6.55;2.60;;;;;;;19.84;63.86;101087.72;2782041;85;21129;-64
2022/07/08 18:49:09;;;;;;;6.10;2.33;;;;;;;19.65;64.70;101085.67;2792649;85;21056;-63
2022/07/08 18:53:12;;;;;;;2.52;2.10;;;;;;;19.49;65.31;101090.54;2739127;86;21084;-65
2022/07/08 18:57:13;;;;;;;6.65;2.87;;;;;;;19.32;66.28;101088.28;2747197;85;21061;-64
2022/07/08 19:01:14;;;;;;;6.95;2.20;;;;;;;19.28;66.56;101086.09;2762537;85;21010;-63